Time;durP1;ratioP1;P1;durP2;ratioP2;P2;SDS_P1;SDS_P2;PMS_P1;PMS_P2;Temp;Humidity;BMP_temperature;BMP_pressure;BME280_temperature;BME280_humidity;BME280_pressure;Samples;Min_cycle;Max_cycle;Signal;HPM_P1;HPM_P2
2022/09/22 00:00:36;;;;;;;3.67;1.27;;;;;;;;;;4994733;28;20034;-65
2022/09/22 00:03:03;;;;;;;3.28;1.10;;;;;;;;;;4996106;28;20955;-66
2022/09/22 00:05:30;;;;;;;3.00;1.02;;;;;;;;;;4996236;28;20037;-67
2022/09/22 00:07:56;;;;;;;4.47;1.30;;;;;;;;;;4994214;28;20144;-66
2022/09/22 00:10:23;;;;;;;4.60;1.30;;;;;;;;;;4996708;28;20045;-66
2022/09/22 00:12:50;;;;;;;5.38;1.40;;;;;;;;;;5011968;28;20045;-65
2022/09/22 00:15:18;;;;;;;5.95;1.33;;;;;;;;;;4997805;28;20319;-65
2022/09/22 00:17:44;;;;;;;5.68;1.10;;;;;;;;;;4997732;28;20109;-65
2022/09/22 00:20:14;;;;;;;3.38;1.10;;;;;;;;;;4997264;28;20042;-66
2022/09/22 00:22:41;;;;;;;4.47;1.08;;;;;;;;;;5013528;28;20165;-65
2022/09/22 00:25:09;;;;;;;3.10;1.23;;;;;;;;;;4994179;28;20045;-65
2022/09/22 00:27:35;;;;;;;4.15;1.30;;;;;;;;;;4997208;28;20030;-65
2022/09/22 00:30:02;;;;;;;6.00;1.17;;;;;;;;;;4995806;28;20530;-66
2022/09/22 00:32:29;;;;;;;4.25;0.98;;;;;;;;;;4995791;28;20077;-66
2022/09/22 00:34:55;;;;;;;4.65;1.30;;;;;;;;;;4997593;28;20062;-65
2022/09/22 00:37:22;;;;;;;4.13;1.33;;;;;;;;;;4995459;28;20065;-66
2022/09/22 00:39:49;;;;;;;4.40;1.13;;;;;;;;;;4996735;28;20030;-67
2022/09/22 00:42:15;;;;;;;4.72;1.23;;;;;;;;;;4997714;28;20113;-66
2022/09/22 00:44:43;;;;;;;3.88;1.40;;;;;;;;;;4996057;28;20034;-66
2022/09/22 00:47:28;;;;;;;3.78;1.15;;;;;;;;;;4997271;28;20428;-66
2022/09/22 00:49:55;;;;;;;4.57;1.40;;;;;;;;;;4977654;28;20046;-67
2022/09/22 00:52:24;;;;;;;3.72;1.30;;;;;;;;;;4995871;28;20057;-67
2022/09/22 00:54:52;;;;;;;5.30;1.17;;;;;;;;;;4998611;28;20060;-66
2022/09/22 00:57:20;;;;;;;3.92;1.23;;;;;;;;;;4986159;28;20048;-66
2022/09/22 00:59:48;;;;;;;3.70;1.30;;;;;;;;;;4998504;28;20045;-68
2022/09/22 01:02:15;;;;;;;7.45;1.30;;;;;;;;;;4982960;28;20092;-65
2022/09/22 01:04:42;;;;;;;6.88;1.50;;;;;;;;;;4994777;28;20693;-67
2022/09/22 01:07:09;;;;;;;3.45;1.30;;;;;;;;;;4998107;28;20046;-67
2022/09/22 01:09:36;;;;;;;4.22;1.02;;;;;;;;;;4996693;28;20046;-67
2022/09/22 01:12:04;;;;;;;3.30;1.25;;;;;;;;;;4998549;28;20042;-67
2022/09/22 01:14:30;;;;;;;4.63;1.17;;;;;;;;;;4994914;28;20044;-66
2022/09/22 01:17:04;;;;;;;5.55;1.38;;;;;;;;;;4997265;28;20056;-65
2022/09/22 01:19:30;;;;;;;;;;;;;;;;;;4996960;28;20041;-66
2022/09/22 01:22:12;;;;;;;6.93;1.20;;;;;;;;;;4996385;28;19957;-67
2022/09/22 01:25:11;;;;;;;2.97;1.00;;;;;;;;;;4997761;28;20128;-65
2022/09/22 01:27:57;;;;;;;3.05;1.00;;;;;;;;;;4956299;28;20044;-67
2022/09/22 01:30:44;;;;;;;5.20;1.10;;;;;;;;;;4979456;28;20034;-66
2022/09/22 01:33:21;;;;;;;3.10;1.17;;;;;;;;;;4989590;28;20065;-66
2022/09/22 01:36:14;;;;;;;3.95;1.23;;;;;;;;;;4992511;28;20119;-66
2022/09/22 01:38:41;;;;;;;6.38;1.35;;;;;;;;;;4989703;28;20042;-67
2022/09/22 01:41:11;;;;;;;5.82;1.33;;;;;;;;;;4991770;28;20050;-65
2022/09/22 01:43:38;;;;;;;7.80;1.27;;;;;;;;;;4973438;28;20109;-67
2022/09/22 01:46:25;;;;;;;5.55;1.35;;;;;;;;;;4989971;28;20670;-65
2022/09/22 01:48:52;;;;;;;5.00;1.23;;;;;;;;;;4989580;28;20813;-65
2022/09/22 01:51:25;;;;;;;4.85;1.20;;;;;;;;;;4974315;28;20034;-66
2022/09/22 01:53:54;;;;;;;4.95;1.20;;;;;;;;;;4992458;28;20147;-66
2022/09/22 01:56:23;;;;;;;4.47;1.55;;;;;;;;;;5008749;28;20049;-67
2022/09/22 01:58:59;;;;;;;3.67;1.20;;;;;;;;;;4993903;28;20115;-65
2022/09/22 02:01:28;;;;;;;4.43;1.40;;;;;;;;;;4984593;28;20984;-65
2022/09/22 02:03:59;;;;;;;4.95;1.50;;;;;;;;;;4983191;28;20053;-65
2022/09/22 02:06:40;;;;;;;6.53;1.40;;;;;;;;;;4996484;28;20543;-65
2022/09/22 02:09:10;;;;;;;5.45;1.50;;;;;;;;;;4997149;28;20096;-65
2022/09/22 02:11:37;;;;;;;5.10;1.30;;;;;;;;;;4996289;28;20088;-66
2022/09/22 02:14:05;;;;;;;4.53;1.20;;;;;;;;;;4995620;28;20048;-65
2022/09/22 02:16:32;;;;;;;3.78;1.10;;;;;;;;;;4996808;28;20057;-65
2022/09/22 02:19:02;;;;;;;5.82;1.35;;;;;;;;;;4997001;28;20037;-65
2022/09/22 02:21:29;;;;;;;4.18;1.30;;;;;;;;;;4997648;28;20077;-65
2022/09/22 02:23:57;;;;;;;4.05;1.17;;;;;;;;;;4998513;28;20052;-66
2022/09/22 02:26:26;;;;;;;5.53;1.42;;;;;;;;;;4998920;28;20030;-65
2022/09/22 02:28:55;;;;;;;7.00;1.30;;;;;;;;;;5001000;28;20042;-66
2022/09/22 02:31:23;;;;;;;5.70;1.30;;;;;;;;;;5006894;28;20279;-64
2022/09/22 02:33:50;;;;;;;3.92;1.30;;;;;;;;;;5004385;28;20801;-65
2022/09/22 02:36:40;;;;;;;4.90;1.50;;;;;;;;;;5017398;28;20045;-65
2022/09/22 02:39:12;;;;;;;5.80;1.45;;;;;;;;;;5017989;28;20526;-64
2022/09/22 02:41:54;;;;;;;5.43;1.20;;;;;;;;;;5002455;28;20053;-64
2022/09/22 02:44:29;;;;;;;6.88;1.50;;;;;;;;;;5016005;28;20129;-65
2022/09/22 02:47:04;;;;;;;4.53;1.30;;;;;;;;;;5004448;28;20058;-65
2022/09/22 02:49:31;;;;;;;4.47;1.55;;;;;;;;;;5034823;28;20156;-65
2022/09/22 02:51:58;;;;;;;5.82;1.75;;;;;;;;;;5002091;28;20395;-65
2022/09/22 02:54:25;;;;;;;3.83;1.52;;;;;;;;;;4999956;28;20204;-65
2022/09/22 02:56:52;;;;;;;5.22;1.33;;;;;;;;;;5007035;28;20057;-65
2022/09/22 02:59:18;;;;;;;3.20;1.20;;;;;;;;;;5000002;28;20119;-66
2022/09/22 03:01:45;;;;;;;9.77;1.70;;;;;;;;;;4998727;28;20129;-65
2022/09/22 03:04:12;;;;;;;8.48;1.48;;;;;;;;;;4999132;28;20046;-65
2022/09/22 03:06:38;;;;;;;4.10;1.30;;;;;;;;;;4998830;28;20537;-65
2022/09/22 03:09:05;;;;;;;5.45;1.60;;;;;;;;;;4999472;28;20049;-63
2022/09/22 03:11:31;;;;;;;5.03;1.10;;;;;;;;;;4990844;28;20046;-67
2022/09/22 03:13:58;;;;;;;8.93;1.33;;;;;;;;;;5009614;28;20072;-65
2022/09/22 03:16:25;;;;;;;6.78;1.35;;;;;;;;;;4996972;28;20058;-64
2022/09/22 03:18:51;;;;;;;6.07;1.55;;;;;;;;;;4999361;28;20042;-65
2022/09/22 03:21:18;;;;;;;4.05;1.08;;;;;;;;;;4983517;28;20510;-64
2022/09/22 03:23:45;;;;;;;4.00;1.30;;;;;;;;;;5000087;28;20066;-63
2022/09/22 03:26:11;;;;;;;6.95;1.63;;;;;;;;;;4998774;28;20041;-65
2022/09/22 03:28:38;;;;;;;5.97;1.40;;;;;;;;;;4995728;28;20444;-64
2022/09/22 03:31:05;;;;;;;7.88;1.52;;;;;;;;;;4997801;28;20030;-64
2022/09/22 03:33:31;;;;;;;5.65;1.30;;;;;;;;;;4997778;28;20517;-64
2022/09/22 03:35:58;;;;;;;8.75;1.40;;;;;;;;;;4998153;28;20107;-64
2022/09/22 03:38:25;;;;;;;5.38;1.30;;;;;;;;;;4996615;28;20077;-63
2022/09/22 03:40:52;;;;;;;5.75;1.60;;;;;;;;;;4997063;28;20030;-64
2022/09/22 03:43:19;;;;;;;3.72;1.40;;;;;;;;;;4996440;28;20818;-64
2022/09/22 03:45:46;;;;;;;7.68;1.60;;;;;;;;;;4996756;28;20045;-64
2022/09/22 03:48:12;;;;;;;5.18;1.50;;;;;;;;;;4997816;28;20938;-64
2022/09/22 03:50:39;;;;;;;9.05;1.75;;;;;;;;;;4995797;28;20042;-66
2022/09/22 03:53:06;;;;;;;7.45;1.40;;;;;;;;;;4995317;28;20141;-66
2022/09/22 03:55:33;;;;;;;5.32;1.60;;;;;;;;;;4994188;28;20061;-66
2022/09/22 03:58:00;;;;;;;6.85;1.40;;;;;;;;;;4996858;28;20064;-65
2022/09/22 04:00:27;;;;;;;5.82;1.60;;;;;;;;;;5028246;28;20533;-64
2022/09/22 04:02:54;;;;;;;5.90;1.52;;;;;;;;;;4997478;28;20041;-65
2022/09/22 04:05:20;;;;;;;5.10;1.55;;;;;;;;;;4995905;28;20615;-63
2022/09/22 04:07:47;;;;;;;8.13;1.52;;;;;;;;;;4995432;28;20038;-65
2022/09/22 04:10:13;;;;;;;6.75;1.40;;;;;;;;;;4995509;28;20065;-66
2022/09/22 04:12:40;;;;;;;7.53;1.50;;;;;;;;;;4996292;28;20033;-65
2022/09/22 04:15:07;;;;;;;5.43;1.70;;;;;;;;;;4997905;28;20058;-64
2022/09/22 04:17:35;;;;;;;6.05;1.55;;;;;;;;;;4995451;28;20049;-65
2022/09/22 04:20:03;;;;;;;3.75;1.17;;;;;;;;;;4996796;28;20048;-64
2022/09/22 04:22:29;;;;;;;8.00;1.42;;;;;;;;;;4996689;28;20952;-64
2022/09/22 04:24:56;;;;;;;5.85;1.30;;;;;;;;;;4996821;28;20033;-64
2022/09/22 04:27:23;;;;;;;8.75;1.38;;;;;;;;;;4995940;28;20117;-64
2022/09/22 04:29:49;;;;;;;8.52;1.52;;;;;;;;;;4997931;28;20038;-64
2022/09/22 04:32:17;;;;;;;6.05;1.60;;;;;;;;;;4997608;28;20030;-64
2022/09/22 04:34:43;;;;;;;8.82;1.67;;;;;;;;;;4997602;28;20130;-64
2022/09/22 04:37:11;;;;;;;5.28;1.52;;;;;;;;;;4999576;28;20128;-63
2022/09/22 04:39:38;;;;;;;6.80;1.83;;;;;;;;;;4997880;28;20066;-65
2022/09/22 04:42:04;;;;;;;8.23;1.40;;;;;;;;;;4998526;28;20041;-64
2022/09/22 04:44:31;;;;;;;9.20;1.90;;;;;;;;;;4996094;28;21296;-64
2022/09/22 04:46:58;;;;;;;3.88;1.65;;;;;;;;;;4997764;28;20057;-64
2022/09/22 04:49:24;;;;;;;3.70;1.45;;;;;;;;;;5012791;28;20037;-67
2022/09/22 04:51:51;;;;;;;7.38;1.58;;;;;;;;;;5004430;28;20087;-66
2022/09/22 04:54:18;;;;;;;9.68;1.58;;;;;;;;;;5015779;28;20134;-66
2022/09/22 04:56:45;;;;;;;6.80;1.42;;;;;;;;;;4997235;28;20056;-66
2022/09/22 04:59:11;;;;;;;9.13;1.50;;;;;;;;;;5001298;28;20518;-67
2022/09/22 05:01:38;;;;;;;7.55;1.30;;;;;;;;;;5003562;28;20050;-65
2022/09/22 05:04:24;;;;;;;5.53;1.80;;;;;;;;;;5003893;28;20029;-65
2022/09/22 05:06:51;;;;;;;4.25;1.45;;;;;;;;;;5012767;28;20677;-63
2022/09/22 05:09:19;;;;;;;7.13;1.60;;;;;;;;;;5011884;28;20068;-65
2022/09/22 05:11:49;;;;;;;12.35;1.50;;;;;;;;;;5010896;28;20042;-66
2022/09/22 05:14:16;;;;;;;7.47;1.63;;;;;;;;;;5012985;28;20198;-66
2022/09/22 05:16:44;;;;;;;10.25;1.73;;;;;;;;;;5011011;28;20052;-64
2022/09/22 05:19:10;;;;;;;5.60;1.65;;;;;;;;;;5012771;28;20068;-65
2022/09/22 05:21:56;;;;;;;7.70;1.75;;;;;;;;;;4994056;28;20700;-65
2022/09/22 05:24:23;;;;;;;12.55;1.92;;;;;;;;;;4992926;28;20045;-65
2022/09/22 05:26:50;;;;;;;8.00;1.90;;;;;;;;;;4994669;28;20112;-66
2022/09/22 05:29:17;;;;;;;14.45;2.00;;;;;;;;;;4993818;28;20205;-66
2022/09/22 05:31:46;;;;;;;5.75;1.90;;;;;;;;;;4992353;28;20084;-66
2022/09/22 05:34:13;;;;;;;5.72;1.83;;;;;;;;;;4993637;28;20038;-67
2022/09/22 05:36:40;;;;;;;5.53;1.60;;;;;;;;;;4993759;28;20293;-65
2022/09/22 05:39:07;;;;;;;9.38;1.67;;;;;;;;;;4993508;28;20048;-64
2022/09/22 05:41:34;;;;;;;10.20;2.17;;;;;;;;;;4991855;28;20042;-65
2022/09/22 05:44:00;;;;;;;5.05;1.70;;;;;;;;;;4988781;28;20036;-64
2022/09/22 05:46:27;;;;;;;7.65;1.70;;;;;;;;;;4977084;28;20046;-63
2022/09/22 05:48:54;;;;;;;4.13;1.50;;;;;;;;;;4969276;28;20038;-65
2022/09/22 05:51:20;;;;;;;6.30;1.90;;;;;;;;;;4967014;28;20067;-65
2022/09/22 05:53:47;;;;;;;6.65;1.80;;;;;;;;;;4990162;28;20141;-64
2022/09/22 05:56:14;;;;;;;8.77;1.92;;;;;;;;;;4994708;28;20481;-65
2022/09/22 05:58:40;;;;;;;11.70;1.88;;;;;;;;;;4994734;28;20045;-65
2022/09/22 06:01:07;;;;;;;15.73;1.98;;;;;;;;;;4997386;28;20072;-64
2022/09/22 06:03:33;;;;;;;4.68;1.75;;;;;;;;;;4996331;28;20425;-64
2022/09/22 06:06:00;;;;;;;6.75;1.83;;;;;;;;;;4997970;28;20042;-64
2022/09/22 06:08:27;;;;;;;6.43;1.83;;;;;;;;;;4997788;28;20129;-63
2022/09/22 06:10:53;;;;;;;4.35;1.88;;;;;;;;;;4999436;28;20077;-65
2022/09/22 06:13:20;;;;;;;6.20;1.70;;;;;;;;;;4998887;28;20038;-65
2022/09/22 06:15:47;;;;;;;10.32;1.90;;;;;;;;;;5012677;28;20060;-64
2022/09/22 06:18:16;;;;;;;5.07;1.80;;;;;;;;;;5018759;28;20041;-65
2022/09/22 06:20:43;;;;;;;6.22;1.73;;;;;;;;;;5017082;28;20061;-65
2022/09/22 06:23:14;;;;;;;7.18;1.55;;;;;;;;;;5011927;28;20109;-64
2022/09/22 06:25:44;;;;;;;6.78;1.90;;;;;;;;;;4998923;28;20547;-64
2022/09/22 06:28:13;;;;;;;10.40;1.95;;;;;;;;;;4997347;28;20829;-64
2022/09/22 06:30:40;;;;;;;7.15;1.83;;;;;;;;;;4998599;28;20038;-65
2022/09/22 06:33:07;;;;;;;9.43;1.90;;;;;;;;;;4999804;28;20053;-63
2022/09/22 06:35:36;;;;;;;6.43;2.00;;;;;;;;;;5013826;28;20389;-64
2022/09/22 06:38:07;;;;;;;11.30;2.17;;;;;;;;;;4998758;28;20037;-62
2022/09/22 06:40:37;;;;;;;6.22;1.80;;;;;;;;;;4998497;28;20054;-66
2022/09/22 06:43:11;;;;;;;6.25;2.00;;;;;;;;;;5013880;28;20133;-65
2022/09/22 06:45:41;;;;;;;11.60;2.22;;;;;;;;;;4997921;28;20053;-64
2022/09/22 06:48:11;;;;;;;8.00;2.17;;;;;;;;;;4997321;28;20041;-66
2022/09/22 06:50:39;;;;;;;5.18;1.70;;;;;;;;;;4997241;28;20618;-65
2022/09/22 06:53:07;;;;;;;10.57;2.30;;;;;;;;;;4998309;28;20049;-65
2022/09/22 06:55:34;;;;;;;7.07;2.30;;;;;;;;;;4998610;28;20056;-65
2022/09/22 06:58:01;;;;;;;15.95;2.28;;;;;;;;;;5019420;28;20041;-64
2022/09/22 07:00:32;;;;;;;7.95;2.00;;;;;;;;;;5001693;28;20111;-65
2022/09/22 07:03:07;;;;;;;8.70;1.77;;;;;;;;;;5026836;28;20042;-65
2022/09/22 07:05:35;;;;;;;7.63;1.90;;;;;;;;;;4998688;28;20042;-65
2022/09/22 07:08:07;;;;;;;3.83;1.90;;;;;;;;;;5004557;28;20161;-66
2022/09/22 07:10:36;;;;;;;9.48;2.05;;;;;;;;;;4998148;28;20060;-65
2022/09/22 07:13:04;;;;;;;10.40;2.30;;;;;;;;;;4999273;28;20614;-65
2022/09/22 07:15:32;;;;;;;5.28;2.00;;;;;;;;;;4997643;28;20062;-65
2022/09/22 07:17:59;;;;;;;10.48;2.00;;;;;;;;;;4998190;28;20671;-65
2022/09/22 07:20:27;;;;;;;7.72;1.98;;;;;;;;;;4974408;28;20034;-64
2022/09/22 07:22:59;;;;;;;6.30;1.80;;;;;;;;;;4997047;28;20042;-64
2022/09/22 07:25:27;;;;;;;5.88;1.75;;;;;;;;;;4998056;28;20033;-65
2022/09/22 07:27:54;;;;;;;4.82;1.83;;;;;;;;;;4998413;28;20042;-65
2022/09/22 07:30:21;;;;;;;4.35;1.98;;;;;;;;;;5001520;28;20038;-65
2022/09/22 07:32:48;;;;;;;6.60;2.50;;;;;;;;;;4999220;28;20053;-64
2022/09/22 07:35:14;;;;;;;7.90;1.95;;;;;;;;;;5001538;28;20045;-65
2022/09/22 07:37:41;;;;;;;12.02;2.00;;;;;;;;;;5001055;28;20037;-65
2022/09/22 07:40:08;;;;;;;7.97;2.20;;;;;;;;;;4999311;28;20038;-63
2022/09/22 07:42:34;;;;;;;9.20;2.10;;;;;;;;;;5015120;28;20046;-64
2022/09/22 07:45:14;;;;;;;6.85;2.33;;;;;;;;;;5001215;28;20034;-65
2022/09/22 07:50:53;;;;;;;7.90;1.90;;;;;;;;;;4998060;28;20064;-64
2022/09/22 07:53:19;;;;;;;5.63;1.88;;;;;;;;;;4997924;28;20880;-65
2022/09/22 07:55:47;;;;;;;7.28;1.88;;;;;;;;;;4998184;28;20050;-65
2022/09/22 07:58:13;;;;;;;7.20;1.88;;;;;;;;;;4995881;28;20046;-65
2022/09/22 08:00:40;;;;;;;6.85;2.00;;;;;;;;;;4979028;28;20049;-64
2022/09/22 08:03:08;;;;;;;6.75;1.80;;;;;;;;;;4993889;28;20034;-63
2022/09/22 08:05:34;;;;;;;7.43;2.05;;;;;;;;;;4979047;28;20670;-64
2022/09/22 08:08:02;;;;;;;9.48;2.20;;;;;;;;;;4995567;28;20092;-63
2022/09/22 08:10:32;;;;;;;8.27;2.30;;;;;;;;;;4991681;28;20033;-63
2022/09/22 08:13:01;;;;;;;6.60;2.10;;;;;;;;;;4980377;28;20782;-64
2022/09/22 08:15:28;;;;;;;5.65;1.92;;;;;;;;;;4981459;28;20058;-63
2022/09/22 08:17:58;;;;;;;7.60;2.15;;;;;;;;;;4994240;28;20053;-63
2022/09/22 08:20:27;;;;;;;5.40;2.10;;;;;;;;;;5013390;28;20037;-64
2022/09/22 08:22:56;;;;;;;6.95;2.10;;;;;;;;;;5004394;28;20038;-64
2022/09/22 08:25:24;;;;;;;4.65;2.00;;;;;;;;;;4995658;28;20053;-63
2022/09/22 08:27:51;;;;;;;6.30;2.00;;;;;;;;;;4997907;28;20141;-64
2022/09/22 08:30:18;;;;;;;7.93;1.83;;;;;;;;;;4980491;28;20329;-63
2022/09/22 08:32:45;;;;;;;8.38;2.30;;;;;;;;;;5001008;28;20034;-63
2022/09/22 08:35:12;;;;;;;6.63;1.80;;;;;;;;;;5014436;28;20038;-64
2022/09/22 08:37:40;;;;;;;6.63;2.20;;;;;;;;;;5027984;28;22915;-64
2022/09/22 08:40:09;;;;;;;8.63;2.10;;;;;;;;;;5007723;28;20048;-63
2022/09/22 08:42:37;;;;;;;9.82;2.40;;;;;;;;;;4994676;28;20422;-66
2022/09/22 08:45:03;;;;;;;10.73;2.10;;;;;;;;;;5016515;28;20110;-63
2022/09/22 08:53:31;;;;;;;8.38;2.40;;;;;;;;;;4996934;28;20465;-63
2022/09/22 08:56:15;;;;;;;7.53;2.22;;;;;;;;;;5026326;28;20558;-63
2022/09/22 08:58:55;;;;;;;6.68;2.30;;;;;;;;;;4997220;28;20053;-63
2022/09/22 09:01:39;;;;;;;4.22;1.90;;;;;;;;;;5026287;28;20479;-63
2022/09/22 09:04:10;;;;;;;6.20;2.00;;;;;;;;;;4995646;28;20041;-63
2022/09/22 09:06:47;;;;;;;11.93;2.40;;;;;;;;;;4996586;28;20049;-64
2022/09/22 09:09:43;;;;;;;6.75;1.90;;;;;;;;;;4998065;28;20112;-65
2022/09/22 09:12:19;;;;;;;8.90;2.50;;;;;;;;;;4988349;28;20038;-63
2022/09/22 09:15:05;;;;;;;7.93;2.25;;;;;;;;;;5010013;28;20045;-63
2022/09/22 09:17:37;;;;;;;7.30;2.42;;;;;;;;;;4980185;28;20091;-65
2022/09/22 09:20:18;;;;;;;5.53;2.00;;;;;;;;;;5011124;28;20037;-65
2022/09/22 09:22:55;;;;;;;11.85;2.42;;;;;;;;;;5011037;28;20124;-64
2022/09/22 09:25:41;;;;;;;4.88;2.10;;;;;;;;;;5010467;28;20857;-63
2022/09/22 09:28:13;;;;;;;7.63;2.20;;;;;;;;;;5011323;28;20052;-64
2022/09/22 09:30:44;;;;;;;6.93;2.40;;;;;;;;;;5010505;28;20511;-64
2022/09/22 09:33:17;;;;;;;4.07;1.83;;;;;;;;;;5011083;28;20064;-63
2022/09/22 09:35:52;;;;;;;6.72;2.47;;;;;;;;;;5014431;28;20069;-63
2022/09/22 09:38:29;;;;;;;5.53;2.05;;;;;;;;;;5015608;28;20045;-66
2022/09/22 09:40:59;;;;;;;7.38;2.13;;;;;;;;;;5016766;28;20092;-64
2022/09/22 09:43:27;;;;;;;6.78;2.13;;;;;;;;;;5015977;28;20033;-64
2022/09/22 09:46:13;;;;;;;6.80;2.42;;;;;;;;;;5008665;28;20076;-65
2022/09/22 09:48:59;;;;;;;6.25;2.40;;;;;;;;;;4999944;28;20041;-64
2022/09/22 09:51:25;;;;;;;4.38;2.03;;;;;;;;;;4999864;28;20041;-64
2022/09/22 09:53:54;;;;;;;6.95;2.22;;;;;;;;;;5001680;28;20052;-66
2022/09/22 09:56:25;;;;;;;8.10;2.10;;;;;;;;;;5001157;28;20050;-64
2022/09/22 10:01:45;;;;;;;6.88;2.85;;;;;;;;;;5002024;28;20124;-65
2022/09/22 10:04:24;;;;;;;9.63;2.58;;;;;;;;;;5000875;28;20038;-64
2022/09/22 10:06:51;;;;;;;6.28;1.83;;;;;;;;;;4999925;28;20044;-65
2022/09/22 10:09:28;;;;;;;11.13;2.13;;;;;;;;;;5023550;28;20046;-64
2022/09/22 10:11:59;;;;;;;4.75;2.20;;;;;;;;;;5020868;28;20095;-63
2022/09/22 10:14:27;;;;;;;5.50;2.28;;;;;;;;;;5019304;28;20919;-65
2022/09/22 10:16:54;;;;;;;6.22;2.30;;;;;;;;;;5007390;28;20079;-65
2022/09/22 10:19:22;;;;;;;11.15;2.38;;;;;;;;;;5011692;28;22204;-64
2022/09/22 10:21:49;;;;;;;6.78;2.45;;;;;;;;;;5007996;28;20146;-63
2022/09/22 10:24:27;;;;;;;11.23;2.50;;;;;;;;;;4999394;28;20053;-64
2022/09/22 10:26:57;;;;;;;5.90;2.55;;;;;;;;;;5000641;28;20044;-65
2022/09/22 10:29:24;;;;;;;10.82;2.45;;;;;;;;;;4984611;28;20034;-64
2022/09/22 10:32:01;;;;;;;6.75;2.60;;;;;;;;;;4995451;28;20077;-66
2022/09/22 10:34:29;;;;;;;7.43;2.58;;;;;;;;;;4991101;28;20045;-65
2022/09/22 10:36:56;;;;;;;9.73;2.97;;;;;;;;;;5013726;28;20817;-65
2022/09/22 10:39:28;;;;;;;8.23;2.75;;;;;;;;;;4998099;28;20454;-65
2022/09/22 10:41:55;;;;;;;7.40;2.78;;;;;;;;;;4998936;28;20045;-65
2022/09/22 10:44:24;;;;;;;6.32;2.78;;;;;;;;;;5011467;28;20615;-65
2022/09/22 10:46:51;;;;;;;7.15;2.90;;;;;;;;;;4999580;28;20391;-65
2022/09/22 10:49:20;;;;;;;10.25;2.80;;;;;;;;;;4998076;28;20176;-66
2022/09/22 10:51:53;;;;;;;6.35;3.03;;;;;;;;;;5013944;28;20743;-64
2022/09/22 10:54:40;;;;;;;10.40;3.00;;;;;;;;;;4997988;28;20203;-65
2022/09/22 10:57:15;;;;;;;7.38;3.08;;;;;;;;;;5002151;28;20083;-63
2022/09/22 11:00:01;;;;;;;11.50;2.88;;;;;;;;;;5004746;28;20064;-65
2022/09/22 11:02:28;;;;;;;6.60;2.67;;;;;;;;;;4995909;28;20359;-64
2022/09/22 11:05:13;;;;;;;4.40;2.42;;;;;;;;;;4997316;28;20109;-63
2022/09/22 11:13:47;;;;;;;13.18;2.70;;;;;;;;;;5017608;28;20514;-64
2022/09/22 11:16:14;;;;;;;7.20;2.88;;;;;;;;;;5017694;28;20929;-63
2022/09/22 11:18:48;;;;;;;9.38;3.03;;;;;;;;;;4989551;28;20100;-64
2022/09/22 11:21:32;;;;;;;7.72;3.20;;;;;;;;;;4999401;28;20053;-64
2022/09/22 11:24:07;;;;;;;10.27;3.22;;;;;;;;;;4998946;28;20538;-63
2022/09/22 11:26:48;;;;;;;7.30;3.33;;;;;;;;;;4998082;28;20065;-62
2022/09/22 11:29:36;;;;;;;7.28;3.05;;;;;;;;;;4999493;28;20034;-65
2022/09/22 11:32:21;;;;;;;8.52;2.97;;;;;;;;;;4977349;28;20036;-63
2022/09/22 11:34:57;;;;;;;7.80;3.17;;;;;;;;;;4989406;28;20053;-64
2022/09/22 11:37:42;;;;;;;10.07;2.95;;;;;;;;;;5004519;28;20134;-65
2022/09/22 11:40:27;;;;;;;9.63;2.85;;;;;;;;;;5006652;28;20042;-65
2022/09/22 11:43:11;;;;;;;9.27;2.97;;;;;;;;;;5015493;28;20142;-63
2022/09/22 11:45:38;;;;;;;10.40;3.80;;;;;;;;;;5014273;28;20103;-62
2022/09/22 11:48:10;;;;;;;7.20;2.85;;;;;;;;;;4996410;28;20046;-65
2022/09/22 11:50:48;;;;;;;5.80;2.70;;;;;;;;;;4995732;28;20555;-65
2022/09/22 11:53:24;;;;;;;5.60;2.58;;;;;;;;;;4996489;28;20042;-66
2022/09/22 11:56:08;;;;;;;9.75;3.42;;;;;;;;;;4996369;28;20045;-65
2022/09/22 11:58:34;;;;;;;;;;;;;;;;;;4994176;28;20487;-63
2022/09/22 12:01:09;;;;;;;5.03;2.42;;;;;;;;;;4997415;28;19917;-64
2022/09/22 12:03:41;;;;;;;9.35;3.15;;;;;;;;;;4996357;28;20050;-64
2022/09/22 12:06:11;;;;;;;15.60;5.70;;;;;;;;;;5029632;28;20054;-61
2022/09/22 12:08:42;;;;;;;7.45;3.45;;;;;;;;;;4995598;28;20054;-62
2022/09/22 12:11:12;;;;;;;9.77;3.20;;;;;;;;;;4998167;28;20571;-64
2022/09/22 12:13:42;;;;;;;7.68;3.25;;;;;;;;;;4989189;28;20072;-64
2022/09/22 12:16:08;;;;;;;9.55;3.28;;;;;;;;;;5025637;28;20128;-65
2022/09/22 12:18:53;;;;;;;8.20;3.38;;;;;;;;;;5004090;28;20045;-64
2022/09/22 12:21:45;;;;;;;8.10;3.60;;;;;;;;;;4997601;28;20042;-64
2022/09/22 12:24:12;;;;;;;7.43;3.63;;;;;;;;;;4997447;28;20100;-64
2022/09/22 12:26:44;;;;;;;6.88;3.20;;;;;;;;;;4998254;28;20049;-64
2022/09/22 12:29:14;;;;;;;6.93;3.15;;;;;;;;;;4995582;28;20045;-64
2022/09/22 12:31:42;;;;;;;11.23;3.80;;;;;;;;;;4997332;28;20145;-65
2022/09/22 12:34:23;;;;;;;7.80;3.72;;;;;;;;;;4997327;28;20106;-64
2022/09/22 12:36:54;;;;;;;8.55;3.40;;;;;;;;;;4996552;28;20049;-64
2022/09/22 12:39:25;;;;;;;11.15;3.75;;;;;;;;;;4995640;28;21648;-66
2022/09/22 12:41:58;;;;;;;6.75;3.13;;;;;;;;;;4998864;28;20045;-64
2022/09/22 12:44:27;;;;;;;8.00;3.70;;;;;;;;;;4997269;28;20049;-65
2022/09/22 12:46:58;;;;;;;12.13;3.88;;;;;;;;;;4998639;28;20423;-64
2022/09/22 12:49:25;;;;;;;6.18;3.28;;;;;;;;;;4998241;28;20057;-63
2022/09/22 12:51:51;;;;;;;11.00;4.32;;;;;;;;;;4999262;28;20080;-63
2022/09/22 12:54:25;;;;;;;13.48;4.47;;;;;;;;;;4998509;28;20392;-66
2022/09/22 12:56:51;;;;;;;;;;;;;;;;;;4997043;28;20609;-65
2022/09/22 12:59:36;;;;;;;6.93;3.22;;;;;;;;;;4998460;28;19922;-64
2022/09/22 13:02:15;;;;;;;7.28;3.67;;;;;;;;;;5015172;28;20129;-64
2022/09/22 13:04:42;;;;;;;8.75;3.63;;;;;;;;;;5004266;28;20061;-63
2022/09/22 13:07:27;;;;;;;8.43;3.67;;;;;;;;;;4997452;28;20057;-65
2022/09/22 13:10:12;;;;;;;8.18;3.22;;;;;;;;;;4994553;28;20072;-64
2022/09/22 13:12:39;;;;;;;7.90;3.92;;;;;;;;;;4994478;28;20045;-65
2022/09/22 13:15:10;;;;;;;13.95;6.22;;;;;;;;;;4997669;28;20092;-63
2022/09/22 13:17:49;;;;;;;15.68;5.10;;;;;;;;;;4996833;28;20045;-65
2022/09/22 13:20:18;;;;;;;14.68;4.72;;;;;;;;;;4993236;28;20045;-64
2022/09/22 13:22:45;;;;;;;9.65;4.35;;;;;;;;;;5012410;28;20048;-66
2022/09/22 13:25:16;;;;;;;8.60;3.92;;;;;;;;;;4997606;28;20045;-64
2022/09/22 13:27:43;;;;;;;13.27;4.38;;;;;;;;;;4996947;28;20046;-58
2022/09/22 13:30:14;;;;;;;12.38;4.43;;;;;;;;;;4994171;28;20041;-65
2022/09/22 13:32:47;;;;;;;12.23;4.32;;;;;;;;;;4996064;28;20045;-65
2022/09/22 13:35:13;;;;;;;;;;;;;;;;;;4997645;28;20038;-64
2022/09/22 13:37:40;;;;;;;8.77;3.67;;;;;;;;;;4995645;28;19921;-64
2022/09/22 13:40:10;;;;;;;19.08;4.38;;;;;;;;;;4992917;28;20523;-65
2022/09/22 13:42:39;;;;;;;11.82;3.75;;;;;;;;;;4998994;28;20057;-65
2022/09/22 13:45:08;;;;;;;11.80;4.15;;;;;;;;;;5004988;28;20487;-64
2022/09/22 13:47:56;;;;;;;14.82;4.45;;;;;;;;;;5011485;28;20068;-64
2022/09/22 13:50:24;;;;;;;11.65;4.32;;;;;;;;;;5010088;28;20045;-63
2022/09/22 13:52:51;;;;;;;10.85;4.13;;;;;;;;;;5012327;28;20459;-65
2022/09/22 13:55:25;;;;;;;12.30;4.20;;;;;;;;;;4996642;28;20127;-64
2022/09/22 13:57:53;;;;;;;15.82;4.53;;;;;;;;;;5010498;28;20735;-64
2022/09/22 14:00:25;;;;;;;8.82;4.07;;;;;;;;;;5008639;28;20563;-65
2022/09/22 14:02:52;;;;;;;18.13;4.57;;;;;;;;;;5008052;28;20140;-64
2022/09/22 14:05:21;;;;;;;13.02;4.63;;;;;;;;;;4995384;28;20030;-64
2022/09/22 14:07:48;;;;;;;13.75;4.53;;;;;;;;;;5007154;28;20038;-65
2022/09/22 14:10:16;;;;;;;11.60;4.68;;;;;;;;;;5008285;28;20526;-64
2022/09/22 14:12:43;;;;;;;9.02;3.70;;;;;;;;;;5010574;28;20046;-65
2022/09/22 14:15:27;;;;;;;12.23;4.65;;;;;;;;;;5012852;28;20533;-65
2022/09/22 14:17:57;;;;;;;15.95;4.90;;;;;;;;;;5014345;28;20387;-62
2022/09/22 14:20:25;;;;;;;11.77;4.47;;;;;;;;;;5010954;28;20162;-64
2022/09/22 14:22:52;;;;;;;11.75;4.82;;;;;;;;;;5015666;28;20098;-65
2022/09/22 14:25:21;;;;;;;19.15;5.35;;;;;;;;;;5007734;28;20048;-65
2022/09/22 14:27:58;;;;;;;11.38;4.30;;;;;;;;;;4998154;28;20153;-64
2022/09/22 14:30:29;;;;;;;16.23;4.60;;;;;;;;;;4997499;28;20046;-65
2022/09/22 14:32:57;;;;;;;11.82;4.18;;;;;;;;;;4999418;28;20100;-65
2022/09/22 14:35:28;;;;;;;8.90;4.38;;;;;;;;;;4997180;28;20049;-65
2022/09/22 14:37:55;;;;;;;13.13;5.05;;;;;;;;;;5000303;28;20136;-65
2022/09/22 14:40:26;;;;;;;15.75;4.80;;;;;;;;;;5000282;28;20406;-66
2022/09/22 14:42:55;;;;;;;13.35;4.75;;;;;;;;;;4999294;28;20037;-65
2022/09/22 14:45:23;;;;;;;12.05;4.78;;;;;;;;;;4998540;28;20041;-65
2022/09/22 14:48:08;;;;;;;14.85;4.72;;;;;;;;;;4999146;28;20042;-65
2022/09/22 14:50:40;;;;;;;10.40;4.22;;;;;;;;;;4999049;28;20104;-65
2022/09/22 14:53:13;;;;;;;15.48;5.00;;;;;;;;;;5030281;28;20054;-64
2022/09/22 14:55:42;;;;;;;9.88;4.32;;;;;;;;;;4999057;28;20045;-65
2022/09/22 14:58:35;;;;;;;13.18;4.80;;;;;;;;;;4999513;28;20121;-65
2022/09/22 15:04:02;;;;;;;9.60;4.00;;;;;;;;;;4997775;28;20056;-65
2022/09/22 15:06:33;;;;;;;11.93;4.13;;;;;;;;;;4997557;28;20473;-64
2022/09/22 15:09:04;;;;;;;12.20;4.25;;;;;;;;;;4999903;28;20037;-63
2022/09/22 15:11:49;;;;;;;11.20;4.30;;;;;;;;;;4997505;28;20499;-65
2022/09/22 15:14:26;;;;;;;9.35;4.05;;;;;;;;;;5014041;28;20045;-64
2022/09/22 15:18:11;;;;;;;7.93;3.42;;;;;;;;;;4998476;28;20041;-64
2022/09/22 15:19:39;;;;;;;9.88;4.03;;;;;;;;;;4998248;28;20490;-64
2022/09/22 15:22:06;;;;;;;15.32;4.32;;;;;;;;;;4999272;28;20034;-64